Time;durP1;ratioP1;P1;durP2;ratioP2;P2;SDS_P1;SDS_P2;PMS_P1;PMS_P2;Temp;Humidity;BMP_temperature;BMP_pressure;BME280_temperature;BME280_humidity;BME280_pressure;Samples;Min_cycle;Max_cycle;Signal;HPM_P1;HPM_P2
2023/07/31 00:02:05;;;;;;;2.42;1.95;;;;;;;;;;4941516;29;20517;-95
2023/07/31 00:04:34;;;;;;;3.40;1.55;;;;;;;;;;4940345;29;20051;-94
2023/07/31 00:07:06;;;;;;;3.47;1.98;;;;;;;;;;4907584;29;20509;-95
2023/07/31 00:09:33;;;;;;;3.33;1.48;;;;;;;;;;4925467;29;20051;-94
2023/07/31 00:12:01;;;;;;;7.53;1.85;;;;;;;;;;4921813;29;20047;-93
2023/07/31 00:14:28;;;;;;;2.95;1.90;;;;;;;;;;4924745;29;20063;-94
2023/07/31 00:16:56;;;;;;;5.22;2.30;;;;;;;;;;4941868;29;20055;-94
2023/07/31 00:19:23;;;;;;;2.38;1.27;;;;;;;;;;4925145;29;20429;-93
2023/07/31 00:21:52;;;;;;;4.90;1.60;;;;;;;;;;4910927;29;20066;-94
2023/07/31 00:24:20;;;;;;;3.60;1.45;;;;;;;;;;4924721;29;20059;-95
2023/07/31 00:26:47;;;;;;;4.82;2.05;;;;;;;;;;4923609;29;20051;-93
2023/07/31 00:29:14;;;;;;;4.70;1.83;;;;;;;;;;4908984;29;20067;-93
2023/07/31 00:31:42;;;;;;;4.72;2.05;;;;;;;;;;4940682;29;20501;-94
2023/07/31 00:34:11;;;;;;;1.88;1.52;;;;;;;;;;4907998;29;20044;-94
2023/07/31 00:36:38;;;;;;;10.35;1.95;;;;;;;;;;4940657;29;20048;-94
2023/07/31 00:39:10;;;;;;;2.85;1.75;;;;;;;;;;4924007;29;20044;-95
2023/07/31 00:41:40;;;;;;;3.33;2.17;;;;;;;;;;4938951;29;20058;-94
2023/07/31 00:44:07;;;;;;;4.57;1.95;;;;;;;;;;4917713;29;20056;-95
2023/07/31 00:46:37;;;;;;;4.45;1.50;;;;;;;;;;4921147;29;20056;-93
2023/07/31 00:49:05;;;;;;;3.78;1.40;;;;;;;;;;4925348;29;20059;-95
2023/07/31 00:51:32;;;;;;;3.35;1.90;;;;;;;;;;4906798;29;20081;-93
2023/07/31 00:54:00;;;;;;;3.13;1.73;;;;;;;;;;4939426;29;20044;-94
2023/07/31 00:56:29;;;;;;;4.00;1.88;;;;;;;;;;4923250;29;20062;-94
2023/07/31 00:58:58;;;;;;;4.57;1.77;;;;;;;;;;4907868;29;20115;-94
2023/07/31 01:01:26;;;;;;;1.77;1.48;;;;;;;;;;4921647;29;20059;-94
2023/07/31 01:03:55;;;;;;;3.63;2.00;;;;;;;;;;4904859;29;20051;-94
2023/07/31 01:06:33;;;;;;;2.80;1.70;;;;;;;;;;4920145;29;20052;-94
2023/07/31 01:09:03;;;;;;;5.70;2.75;;;;;;;;;;4921195;29;20051;-94
2023/07/31 01:11:37;;;;;;;3.22;1.38;;;;;;;;;;4921241;29;20063;-94
2023/07/31 01:14:05;;;;;;;6.13;1.50;;;;;;;;;;4922429;29;20059;-94
2023/07/31 01:16:37;;;;;;;5.15;1.40;;;;;;;;;;4919547;29;20506;-95
2023/07/31 01:19:07;;;;;;;2.20;1.23;;;;;;;;;;4919832;29;20464;-94
2023/07/31 01:21:54;;;;;;;3.05;1.48;;;;;;;;;;4919660;29;20051;-94
2023/07/31 01:24:24;;;;;;;5.15;1.67;;;;;;;;;;4916788;29;20044;-93
2023/07/31 01:26:58;;;;;;;3.65;2.10;;;;;;;;;;4938156;29;20048;-94
2023/07/31 01:29:27;;;;;;;;;;;;;;;;;;4905023;29;20056;-95
2023/07/31 01:31:56;;;;;;;8.55;2.30;;;;;;;;;;4921857;29;19923;-94
2023/07/31 01:34:24;;;;;;;2.97;1.67;;;;;;;;;;4904053;29;20051;-94
2023/07/31 01:36:52;;;;;;;1.60;1.50;;;;;;;;;;4937358;29;20047;-95
2023/07/31 01:39:21;;;;;;;4.57;2.10;;;;;;;;;;4904905;29;20062;-93
2023/07/31 01:41:48;;;;;;;2.88;1.58;;;;;;;;;;4918445;29;20588;-95
2023/07/31 01:44:17;;;;;;;3.33;1.73;;;;;;;;;;4903704;29;20048;-94
2023/07/31 01:46:45;;;;;;;4.22;1.60;;;;;;;;;;4937521;29;20063;-94
2023/07/31 01:49:12;;;;;;;1.77;1.38;;;;;;;;;;4921465;29;20051;-94
2023/07/31 01:51:42;;;;;;;6.10;1.67;;;;;;;;;;4921630;29;20058;-94
2023/07/31 01:54:12;;;;;;;6.82;2.10;;;;;;;;;;4923708;29;20052;-94
2023/07/31 01:56:39;;;;;;;4.45;2.35;;;;;;;;;;4924843;29;20055;-93
2023/07/31 01:59:06;;;;;;;4.30;1.67;;;;;;;;;;4905530;29;20595;-94
2023/07/31 02:01:36;;;;;;;4.65;1.38;;;;;;;;;;4921677;29;20121;-95
2023/07/31 02:04:04;;;;;;;3.72;2.30;;;;;;;;;;4922338;29;20512;-93
2023/07/31 02:06:34;;;;;;;5.03;2.67;;;;;;;;;;4922352;29;20425;-94
2023/07/31 02:09:03;;;;;;;4.60;1.92;;;;;;;;;;4927058;29;20493;-95
2023/07/31 02:11:33;;;;;;;3.22;1.50;;;;;;;;;;4938527;29;20059;-94
2023/07/31 02:14:05;;;;;;;3.20;1.55;;;;;;;;;;4922121;29;20501;-94
2023/07/31 02:16:32;;;;;;;1.95;1.38;;;;;;;;;;4920041;29;20063;-94
2023/07/31 02:19:03;;;;;;;2.78;1.60;;;;;;;;;;4919613;29;20051;-94
2023/07/31 02:21:30;;;;;;;6.47;1.67;;;;;;;;;;4935724;29;20058;-93
2023/07/31 02:23:58;;;;;;;2.88;1.80;;;;;;;;;;4920292;29;20048;-94
2023/07/31 02:26:26;;;;;;;2.42;1.90;;;;;;;;;;4919439;29;20044;-93
2023/07/31 02:28:53;;;;;;;3.05;1.45;;;;;;;;;;4920702;29;20051;-94
2023/07/31 02:31:21;;;;;;;6.78;2.70;;;;;;;;;;4924297;29;20059;-95
2023/07/31 02:33:48;;;;;;;4.38;2.22;;;;;;;;;;4936827;29;20059;-95
2023/07/31 02:36:17;;;;;;;5.72;1.63;;;;;;;;;;4937170;29;20047;-93
2023/07/31 02:38:44;;;;;;;2.60;2.00;;;;;;;;;;4908549;29;20051;-93
2023/07/31 02:41:12;;;;;;;2.97;2.78;;;;;;;;;;4925129;29;20054;-94
2023/07/31 02:43:42;;;;;;;2.92;1.73;;;;;;;;;;4910568;29;20052;-94
2023/07/31 02:46:11;;;;;;;2.58;1.83;;;;;;;;;;4903286;29;20044;-94
2023/07/31 02:48:39;;;;;;;3.30;1.60;;;;;;;;;;4909379;29;20059;-94
2023/07/31 02:51:06;;;;;;;3.50;1.85;;;;;;;;;;4913383;29;20051;-94
2023/07/31 02:53:35;;;;;;;3.55;1.70;;;;;;;;;;4924016;29;20031;-95
2023/07/31 02:56:04;;;;;;;6.40;2.53;;;;;;;;;;4924419;29;20043;-94
2023/07/31 02:58:33;;;;;;;5.97;2.30;;;;;;;;;;4934186;29;20062;-93
2023/07/31 03:01:00;;;;;;;4.88;1.80;;;;;;;;;;4923050;29;20043;-95
2023/07/31 03:03:27;;;;;;;9.02;2.55;;;;;;;;;;4926101;29;20055;-95
2023/07/31 03:05:55;;;;;;;4.25;2.55;;;;;;;;;;4946828;29;20047;-93
2023/07/31 03:08:22;;;;;;;2.33;1.98;;;;;;;;;;4924952;29;20512;-93
2023/07/31 03:10:52;;;;;;;3.53;1.90;;;;;;;;;;4940841;29;20052;-94
2023/07/31 03:13:19;;;;;;;2.03;1.70;;;;;;;;;;4923790;29;20059;-94
2023/07/31 03:15:47;;;;;;;2.33;1.65;;;;;;;;;;4926300;29;20043;-94
2023/07/31 03:18:16;;;;;;;2.08;1.65;;;;;;;;;;4923316;29;20055;-94
2023/07/31 03:20:44;;;;;;;4.57;1.70;;;;;;;;;;4927919;29;20043;-93
2023/07/31 03:23:12;;;;;;;2.75;1.65;;;;;;;;;;4916663;29;20050;-95
2023/07/31 03:25:42;;;;;;;2.63;1.65;;;;;;;;;;4905907;29;20063;-94
2023/07/31 03:28:11;;;;;;;3.33;1.90;;;;;;;;;;4923807;29;20067;-95
2023/07/31 03:30:39;;;;;;;4.75;2.22;;;;;;;;;;4938327;29;20064;-95
2023/07/31 03:33:06;;;;;;;3.72;2.10;;;;;;;;;;4923397;29;20043;-94
2023/07/31 03:35:36;;;;;;;1.92;1.42;;;;;;;;;;4909156;29;20055;-94
2023/07/31 03:38:03;;;;;;;3.47;1.88;;;;;;;;;;4924068;29;20055;-94
2023/07/31 03:40:33;;;;;;;6.15;2.53;;;;;;;;;;4925274;29;20243;-95
2023/07/31 03:43:03;;;;;;;5.88;2.75;;;;;;;;;;4950539;28;20023;-92
2023/07/31 03:45:32;;;;;;;6.78;2.45;;;;;;;;;;4939305;28;20035;-92
2023/07/31 03:47:59;;;;;;;9.57;1.75;;;;;;;;;;4952393;29;20054;-94
2023/07/31 03:50:30;;;;;;;5.30;2.20;;;;;;;;;;4945494;29;20044;-94
2023/07/31 03:53:00;;;;;;;2.47;1.95;;;;;;;;;;4909937;29;20052;-94
2023/07/31 03:55:30;;;;;;;7.03;2.55;;;;;;;;;;4908676;29;20050;-95
2023/07/31 03:58:00;;;;;;;6.78;2.13;;;;;;;;;;4924323;29;20485;-94
2023/07/31 04:00:27;;;;;;;4.22;2.00;;;;;;;;;;4937127;29;20043;-92
2023/07/31 04:02:56;;;;;;;5.20;2.25;;;;;;;;;;4937640;29;20078;-94
2023/07/31 04:05:23;;;;;;;5.30;1.88;;;;;;;;;;4904747;29;20510;-94
2023/07/31 04:07:51;;;;;;;8.65;2.00;;;;;;;;;;4915235;29;20399;-94
2023/07/31 04:10:20;;;;;;;3.05;1.75;;;;;;;;;;4921620;29;20047;-93
2023/07/31 04:12:48;;;;;;;2.20;1.30;;;;;;;;;;4923609;29;20417;-94
2023/07/31 04:15:16;;;;;;;5.55;2.28;;;;;;;;;;4923799;29;20039;-94
2023/07/31 04:17:43;;;;;;;2.80;1.67;;;;;;;;;;4924550;29;20051;-94
2023/07/31 04:20:12;;;;;;;6.03;1.77;;;;;;;;;;4924471;29;20036;-94
2023/07/31 04:22:40;;;;;;;9.38;3.35;;;;;;;;;;4942986;28;20055;-92
2023/07/31 04:25:10;;;;;;;2.70;1.80;;;;;;;;;;4930639;29;20052;-94
2023/07/31 04:27:37;;;;;;;3.78;1.95;;;;;;;;;;4918609;29;20429;-94
2023/07/31 04:30:06;;;;;;;6.07;1.85;;;;;;;;;;4937833;29;20051;-94
2023/07/31 04:32:35;;;;;;;5.25;2.72;;;;;;;;;;4924462;29;20051;-94
2023/07/31 04:35:02;;;;;;;5.78;2.47;;;;;;;;;;4914971;29;20063;-94
2023/07/31 04:37:31;;;;;;;4.90;2.58;;;;;;;;;;4917831;29;20062;-94
2023/07/31 04:39:59;;;;;;;3.75;2.33;;;;;;;;;;4920184;29;20062;-94
2023/07/31 04:42:29;;;;;;;4.38;1.73;;;;;;;;;;4922460;29;20054;-94
2023/07/31 04:44:57;;;;;;;3.13;2.03;;;;;;;;;;4923051;29;20054;-94
2023/07/31 04:47:26;;;;;;;4.30;2.15;;;;;;;;;;4930854;29;20047;-94
2023/07/31 04:49:54;;;;;;;4.57;2.25;;;;;;;;;;4923296;29;20051;-94
2023/07/31 04:52:21;;;;;;;4.20;2.17;;;;;;;;;;4925435;29;20060;-94
2023/07/31 04:54:50;;;;;;;3.03;1.98;;;;;;;;;;4929535;29;20426;-94
2023/07/31 04:57:17;;;;;;;3.22;1.88;;;;;;;;;;4907813;29;20047;-91
2023/07/31 04:59:47;;;;;;;3.78;2.30;;;;;;;;;;4906200;29;20055;-94
2023/07/31 05:02:14;;;;;;;3.75;2.63;;;;;;;;;;4904268;29;20055;-94
2023/07/31 05:04:42;;;;;;;6.78;2.35;;;;;;;;;;4900855;29;20052;-92
2023/07/31 05:07:09;;;;;;;4.93;2.20;;;;;;;;;;4918621;29;20052;-93
2023/07/31 05:09:37;;;;;;;2.90;1.90;;;;;;;;;;4916090;29;20505;-94
2023/07/31 05:12:07;;;;;;;3.03;1.80;;;;;;;;;;4900950;29;20059;-93
2023/07/31 05:14:34;;;;;;;2.40;2.20;;;;;;;;;;4917036;29;20063;-93
2023/07/31 05:17:04;;;;;;;5.43;2.25;;;;;;;;;;4917776;29;20051;-93
2023/07/31 05:19:32;;;;;;;4.53;2.20;;;;;;;;;;4904912;29;20051;-95
2023/07/31 05:21:59;;;;;;;5.75;2.47;;;;;;;;;;4905795;29;20062;-94
2023/07/31 05:24:27;;;;;;;8.43;2.40;;;;;;;;;;4939442;29;20493;-94
2023/07/31 05:26:54;;;;;;;4.57;2.30;;;;;;;;;;4922027;29;20055;-95
2023/07/31 05:29:25;;;;;;;6.97;1.77;;;;;;;;;;4924432;29;20584;-95
2023/07/31 05:31:52;;;;;;;6.28;2.03;;;;;;;;;;4941894;29;20056;-93
2023/07/31 05:34:22;;;;;;;3.28;1.70;;;;;;;;;;4924209;29;20047;-93
2023/07/31 05:36:49;;;;;;;4.82;2.42;;;;;;;;;;4903817;29;20055;-93
2023/07/31 05:39:20;;;;;;;2.92;2.05;;;;;;;;;;4935205;29;20056;-95
2023/07/31 05:41:48;;;;;;;5.47;2.40;;;;;;;;;;4923040;29;20059;-95
2023/07/31 05:44:15;;;;;;;5.45;2.17;;;;;;;;;;4920512;29;20047;-93
2023/07/31 05:46:46;;;;;;;4.63;2.10;;;;;;;;;;4934654;29;20054;-94
2023/07/31 05:49:18;;;;;;;2.78;1.67;;;;;;;;;;4917833;29;20070;-94
2023/07/31 05:51:49;;;;;;;;;;;;;;;;;;4900916;29;20063;-93
2023/07/31 05:54:19;;;;;;;2.67;1.85;;;;;;;;;;4921833;29;19927;-94
2023/07/31 05:56:46;;;;;;;5.28;1.92;;;;;;;;;;4918774;29;20056;-95
2023/07/31 05:59:14;;;;;;;3.80;2.08;;;;;;;;;;4921565;29;20060;-94
2023/07/31 06:01:47;;;;;;;4.97;2.65;;;;;;;;;;4921071;29;20051;-94
2023/07/31 06:04:14;;;;;;;3.33;1.60;;;;;;;;;;4931111;29;20060;-94
2023/07/31 06:06:43;;;;;;;5.30;2.35;;;;;;;;;;4902584;29;20075;-94
2023/07/31 06:09:11;;;;;;;2.47;1.63;;;;;;;;;;4916330;29;20048;-95
2023/07/31 06:11:41;;;;;;;5.03;1.67;;;;;;;;;;4923941;29;20059;-94
2023/07/31 06:14:09;;;;;;;5.25;2.80;;;;;;;;;;4924371;29;20060;-94
2023/07/31 06:16:37;;;;;;;3.20;2.20;;;;;;;;;;4927409;29;20043;-95
2023/07/31 06:19:08;;;;;;;2.05;1.63;;;;;;;;;;4939981;29;20051;-93
2023/07/31 06:21:38;;;;;;;4.57;1.90;;;;;;;;;;4903054;29;20055;-95
2023/07/31 06:24:06;;;;;;;3.95;2.08;;;;;;;;;;4905997;29;20059;-94
2023/07/31 06:26:36;;;;;;;3.72;2.00;;;;;;;;;;4938029;29;20051;-95
2023/07/31 06:29:03;;;;;;;3.35;1.80;;;;;;;;;;4936888;29;20048;-95
2023/07/31 06:31:31;;;;;;;3.03;1.70;;;;;;;;;;4937281;29;20052;-94
2023/07/31 06:33:58;;;;;;;3.92;1.90;;;;;;;;;;4925334;29;20052;-95
2023/07/31 06:36:27;;;;;;;2.63;2.03;;;;;;;;;;4933967;29;20048;-94
2023/07/31 06:38:57;;;;;;;4.57;1.95;;;;;;;;;;4928903;29;20048;-95
2023/07/31 06:41:27;;;;;;;4.47;2.08;;;;;;;;;;4929414;29;20042;-95
2023/07/31 06:43:57;;;;;;;4.18;2.13;;;;;;;;;;4945748;29;20052;-94
2023/07/31 06:46:24;;;;;;;5.18;2.15;;;;;;;;;;4953636;29;20071;-94
2023/07/31 06:48:52;;;;;;;3.88;2.40;;;;;;;;;;4953149;29;20035;-94
2023/07/31 06:51:19;;;;;;;6.28;2.30;;;;;;;;;;4950210;29;20062;-95
2023/07/31 06:53:53;;;;;;;2.63;1.90;;;;;;;;;;4950213;29;20210;-94
2023/07/31 06:56:23;;;;;;;4.15;2.28;;;;;;;;;;4923635;29;20047;-94
2023/07/31 06:58:53;;;;;;;5.95;2.35;;;;;;;;;;4933414;29;20056;-94
2023/07/31 07:01:24;;;;;;;3.53;2.08;;;;;;;;;;4936316;29;20039;-94
2023/07/31 07:03:54;;;;;;;3.63;1.98;;;;;;;;;;4924125;29;20066;-93
2023/07/31 07:06:23;;;;;;;2.92;1.67;;;;;;;;;;4944398;29;20052;-94
2023/07/31 07:08:50;;;;;;;4.97;3.47;;;;;;;;;;4923121;29;20051;-94
2023/07/31 07:11:19;;;;;;;3.15;1.60;;;;;;;;;;4910236;29;20048;-93
2023/07/31 07:13:51;;;;;;;5.32;2.60;;;;;;;;;;4905878;29;20060;-94
2023/07/31 07:16:19;;;;;;;11.18;4.30;;;;;;;;;;4942501;29;20063;-94
2023/07/31 07:18:46;;;;;;;2.75;2.50;;;;;;;;;;4927157;29;20056;-95
2023/07/31 07:21:15;;;;;;;4.57;2.00;;;;;;;;;;4915739;29;20066;-95
2023/07/31 07:23:43;;;;;;;5.88;1.75;;;;;;;;;;4914785;29;20055;-94
2023/07/31 07:26:10;;;;;;;4.75;1.88;;;;;;;;;;4928554;29;20057;-93
2023/07/31 07:28:39;;;;;;;4.10;1.52;;;;;;;;;;4944740;29;20051;-94
2023/07/31 07:31:09;;;;;;;3.50;1.63;;;;;;;;;;4931801;29;20047;-94
2023/07/31 07:33:39;;;;;;;2.17;1.25;;;;;;;;;;4916867;29;20055;-94
2023/07/31 07:36:09;;;;;;;3.08;1.65;;;;;;;;;;4951665;29;20055;-94
2023/07/31 07:38:39;;;;;;;3.10;1.70;;;;;;;;;;4932623;29;20067;-96
2023/07/31 07:41:06;;;;;;;4.03;2.10;;;;;;;;;;4951132;29;20051;-94
2023/07/31 07:43:36;;;;;;;2.25;1.80;;;;;;;;;;4934912;29;20066;-94
2023/07/31 07:46:05;;;;;;;2.45;1.40;;;;;;;;;;4934265;29;20048;-95
2023/07/31 07:48:35;;;;;;;3.17;1.90;;;;;;;;;;4934263;29;20066;-94
2023/07/31 07:51:05;;;;;;;2.92;2.20;;;;;;;;;;4935084;29;20051;-93
2023/07/31 07:53:32;;;;;;;6.90;2.90;;;;;;;;;;4942111;29;20074;-95
2023/07/31 07:56:00;;;;;;;3.05;2.03;;;;;;;;;;4916345;29;20047;-94
2023/07/31 07:58:29;;;;;;;4.10;1.75;;;;;;;;;;4933136;29;20048;-95
2023/07/31 08:01:00;;;;;;;5.47;2.47;;;;;;;;;;4952636;29;20035;-94
2023/07/31 08:03:29;;;;;;;4.43;2.15;;;;;;;;;;4939704;29;20052;-93
2023/07/31 08:05:59;;;;;;;4.55;2.30;;;;;;;;;;4931914;29;20048;-95
2023/07/31 08:08:31;;;;;;;5.32;2.33;;;;;;;;;;4927795;29;20047;-93
2023/07/31 08:10:58;;;;;;;6.10;2.03;;;;;;;;;;4951447;29;20055;-93
2023/07/31 08:13:26;;;;;;;4.78;2.17;;;;;;;;;;4949719;29;20034;-92
2023/07/31 08:15:59;;;;;;;5.95;1.80;;;;;;;;;;4937353;29;20031;-93
2023/07/31 08:18:26;;;;;;;;;;;;;;;;;;4919271;29;20047;-91
2023/07/31 08:20:55;;;;;;;3.33;1.90;;;;;;;;;;4934054;29;19933;-93
2023/07/31 08:23:22;;;;;;;10.77;2.70;;;;;;;;;;4951519;29;20044;-93
2023/07/31 08:25:52;;;;;;;3.72;2.38;;;;;;;;;;4934429;29;20055;-93
2023/07/31 08:28:19;;;;;;;3.13;2.17;;;;;;;;;;4932255;29;20044;-93
2023/07/31 08:30:47;;;;;;;6.40;2.70;;;;;;;;;;4934020;29;20051;-92
2023/07/31 08:33:14;;;;;;;5.28;2.20;;;;;;;;;;4949673;29;20042;-92
2023/07/31 08:35:41;;;;;;;3.78;2.13;;;;;;;;;;4935762;29;20049;-92
2023/07/31 08:38:10;;;;;;;4.35;2.00;;;;;;;;;;4933894;29;20036;-93
2023/07/31 08:40:38;;;;;;;3.58;1.67;;;;;;;;;;4949769;29;20054;-92
2023/07/31 08:43:06;;;;;;;2.97;1.90;;;;;;;;;;4935556;29;20047;-91
2023/07/31 08:45:33;;;;;;;3.60;2.13;;;;;;;;;;4953145;29;20067;-92
2023/07/31 08:48:04;;;;;;;4.00;2.08;;;;;;;;;;4942361;29;20035;-92
2023/07/31 08:50:34;;;;;;;3.65;2.53;;;;;;;;;;4954273;28;20065;-93
2023/07/31 08:53:02;;;;;;;3.92;1.85;;;;;;;;;;4953284;29;20063;-93
2023/07/31 08:55:32;;;;;;;5.07;1.75;;;;;;;;;;4931769;29;20052;-92
2023/07/31 08:58:00;;;;;;;3.42;2.63;;;;;;;;;;4946227;29;20058;-92
2023/07/31 09:00:30;;;;;;;1.85;1.55;;;;;;;;;;4915626;29;20047;-93
2023/07/31 09:03:01;;;;;;;5.20;1.90;;;;;;;;;;4937321;29;20047;-93
2023/07/31 09:05:30;;;;;;;3.08;1.73;;;;;;;;;;4951097;29;20052;-93
2023/07/31 09:08:05;;;;;;;5.32;1.77;;;;;;;;;;4932432;29;20055;-93
2023/07/31 09:24:10;;;;;;;5.35;2.53;;;;;;;;;;5042289;27;1278638;-84
2023/07/31 09:27:50;;;;;;;3.22;1.88;;;;;;;;;;5065653;28;20052;-84
2023/07/31 09:30:37;;;;;;;5.20;2.10;;;;;;;;;;4992124;28;20052;-84
2023/07/31 09:33:13;;;;;;;2.47;2.03;;;;;;;;;;5059113;28;20063;-83
2023/07/31 09:36:09;;;;;;;3.85;2.13;;;;;;;;;;5043933;28;20052;-84
2023/07/31 09:38:36;;;;;;;3.78;1.90;;;;;;;;;;5086193;28;20040;-85
2023/07/31 09:41:08;;;;;;;2.65;1.67;;;;;;;;;;5058400;28;20056;-84
2023/07/31 09:43:39;;;;;;;2.75;1.52;;;;;;;;;;5047919;28;20079;-84
2023/07/31 09:46:14;;;;;;;4.28;2.67;;;;;;;;;;5076599;28;20479;-84
2023/07/31 09:48:43;;;;;;;5.72;1.83;;;;;;;;;;5083060;28;20052;-84
2023/07/31 09:51:11;;;;;;;4.82;2.17;;;;;;;;;;5058015;28;20040;-84
2023/07/31 09:53:40;;;;;;;5.22;2.58;;;;;;;;;;5048238;28;20060;-85
2023/07/31 09:56:09;;;;;;;5.65;2.88;;;;;;;;;;5061738;28;20040;-84
2023/07/31 09:58:36;;;;;;;6.18;3.08;;;;;;;;;;5078438;28;20052;-84
2023/07/31 10:01:04;;;;;;;8.00;2.00;;;;;;;;;;5057349;28;20045;-84
2023/07/31 10:03:36;;;;;;;7.05;2.78;;;;;;;;;;5055398;28;20044;-84
2023/07/31 10:06:07;;;;;;;4.38;1.73;;;;;;;;;;5057246;28;20040;-84
2023/07/31 10:08:36;;;;;;;4.28;1.83;;;;;;;;;;5032466;28;20427;-85
2023/07/31 10:11:06;;;;;;;2.65;1.63;;;;;;;;;;5044060;28;20064;-84
2023/07/31 10:13:37;;;;;;;4.50;2.70;;;;;;;;;;5059897;28;20052;-84
2023/07/31 10:16:07;;;;;;;3.50;2.25;;;;;;;;;;5066656;28;20561;-84
2023/07/31 10:18:35;;;;;;;3.90;2.20;;;;;;;;;;5056478;28;20061;-85
2023/07/31 10:21:02;;;;;;;3.63;2.22;;;;;;;;;;5039809;28;20056;-85
2023/07/31 10:23:32;;;;;;;3.92;1.85;;;;;;;;;;5035116;28;20049;-85
2023/07/31 10:25:59;;;;;;;3.42;2.47;;;;;;;;;;5043887;28;20053;-84
2023/07/31 10:28:27;;;;;;;3.42;1.75;;;;;;;;;;5051506;28;20052;-84
2023/07/31 10:30:56;;;;;;;9.60;2.42;;;;;;;;;;5065866;28;20052;-84
2023/07/31 10:33:23;;;;;;;2.13;1.77;;;;;;;;;;5044070;28;20052;-85
2023/07/31 10:35:53;;;;;;;4.03;2.28;;;;;;;;;;5047029;28;20059;-84
2023/07/31 10:38:20;;;;;;;3.95;2.42;;;;;;;;;;5047331;28;20048;-84
2023/07/31 10:40:50;;;;;;;3.75;1.92;;;;;;;;;;5061574;28;20051;-84
2023/07/31 10:43:27;;;;;;;5.63;2.40;;;;;;;;;;5061302;28;20049;-84
2023/07/31 10:46:00;;;;;;;3.00;2.15;;;;;;;;;;5035349;28;20052;-84
2023/07/31 10:48:34;;;;;;;5.63;2.50;;;;;;;;;;5054561;28;20055;-84
2023/07/31 10:51:09;;;;;;;6.13;2.15;;;;;;;;;;5059670;28;20048;-84
2023/07/31 10:53:37;;;;;;;7.45;2.00;;;;;;;;;;5025602;28;20049;-84
2023/07/31 10:56:05;;;;;;;3.72;2.30;;;;;;;;;;5020156;28;20733;-84
2023/07/31 10:58:37;;;;;;;;;;;;;;;;;;5039763;28;20059;-84
2023/07/31 11:01:08;;;;;;;3.95;2.80;;;;;;;;;;5059677;28;19928;-84
2023/07/31 11:03:44;;;;;;;2.88;2.05;;;;;;;;;;5061938;28;20431;-84
2023/07/31 11:06:17;;;;;;;2.88;2.50;;;;;;;;;;5028452;28;20053;-84
2023/07/31 11:08:45;;;;;;;4.20;1.90;;;;;;;;;;5026767;28;20068;-84
2023/07/31 11:11:16;;;;;;;2.95;2.17;;;;;;;;;;5044111;28;20519;-84
2023/07/31 11:13:49;;;;;;;4.13;2.70;;;;;;;;;;5045340;28;20128;-83
2023/07/31 11:16:19;;;;;;;3.25;2.30;;;;;;;;;;5046076;28;20045;-84
2023/07/31 11:18:53;;;;;;;6.45;2.42;;;;;;;;;;5048061;28;20056;-84
2023/07/31 11:21:21;;;;;;;5.85;2.50;;;;;;;;;;5053668;28;20052;-84
2023/07/31 11:23:54;;;;;;;7.30;3.17;;;;;;;;;;5043939;28;20044;-84
2023/07/31 11:26:22;;;;;;;5.68;2.25;;;;;;;;;;5045801;28;20052;-84
2023/07/31 11:28:49;;;;;;;3.30;2.30;;;;;;;;;;5028609;28;20053;-84
2023/07/31 11:31:18;;;;;;;4.03;1.98;;;;;;;;;;5032721;28;20049;-84
2023/07/31 11:33:50;;;;;;;6.93;2.97;;;;;;;;;;5052657;28;20052;-83
2023/07/31 11:36:18;;;;;;;3.08;2.28;;;;;;;;;;5052509;28;20040;-83
2023/07/31 11:38:48;;;;;;;3.97;2.50;;;;;;;;;;5037511;28;20494;-85
2023/07/31 11:41:16;;;;;;;6.45;2.33;;;;;;;;;;5048960;28;20052;-85
2023/07/31 11:43:47;;;;;;;5.15;2.55;;;;;;;;;;5029727;28;20068;-85
2023/07/31 11:46:14;;;;;;;4.15;1.90;;;;;;;;;;5038697;28;20057;-85
2023/07/31 11:48:43;;;;;;;3.70;2.10;;;;;;;;;;5046448;28;20051;-85
2023/07/31 11:51:13;;;;;;;2.53;1.73;;;;;;;;;;5040175;28;20053;-85
2023/07/31 11:53:44;;;;;;;6.05;3.20;;;;;;;;;;5029092;28;20076;-85
2023/07/31 11:56:19;;;;;;;4.00;2.10;;;;;;;;;;5062893;28;20507;-85
2023/07/31 11:58:47;;;;;;;3.08;2.22;;;;;;;;;;5043162;28;20048;-85
2023/07/31 12:01:19;;;;;;;3.50;2.30;;;;;;;;;;5061661;28;20539;-86
2023/07/31 12:03:48;;;;;;;4.43;2.33;;;;;;;;;;5030403;28;20055;-85
2023/07/31 12:06:20;;;;;;;3.60;2.10;;;;;;;;;;5040920;28;20055;-85
2023/07/31 12:08:48;;;;;;;4.35;2.38;;;;;;;;;;4999393;23;20052;-93
2023/07/31 12:11:17;;;;;;;3.22;2.67;;;;;;;;;;4947458;29;20062;-92
2023/07/31 12:13:45;;;;;;;3.85;2.20;;;;;;;;;;4946491;29;20040;-91
2023/07/31 12:16:12;;;;;;;3.97;2.60;;;;;;;;;;4946764;28;20051;-93
2023/07/31 12:18:40;;;;;;;3.40;1.92;;;;;;;;;;4941891;29;20515;-92
2023/07/31 12:21:11;;;;;;;4.82;2.40;;;;;;;;;;4941468;29;20043;-94
2023/07/31 12:23:42;;;;;;;4.63;2.45;;;;;;;;;;4946858;29;20048;-93
2023/07/31 12:26:11;;;;;;;4.03;2.58;;;;;;;;;;4943841;29;20519;-93
2023/07/31 12:28:41;;;;;;;3.42;2.13;;;;;;;;;;4936217;29;20051;-93
2023/07/31 12:31:12;;;;;;;3.63;2.40;;;;;;;;;;4940227;29;20075;-94
2023/07/31 12:33:41;;;;;;;6.18;2.35;;;;;;;;;;4949221;29;20034;-93
2023/07/31 12:36:11;;;;;;;5.00;2.83;;;;;;;;;;4943807;29;20048;-93
2023/07/31 12:38:39;;;;;;;2.83;2.45;;;;;;;;;;4939782;29;20055;-93
2023/07/31 12:41:07;;;;;;;5.43;2.88;;;;;;;;;;4955511;28;20052;-93
2023/07/31 12:43:34;;;;;;;6.18;2.22;;;;;;;;;;4943224;29;20055;-93
2023/07/31 12:46:02;;;;;;;3.85;2.22;;;;;;;;;;4941335;29;20044;-94
2023/07/31 12:48:29;;;;;;;6.43;2.35;;;;;;;;;;4946151;29;20044;-92
2023/07/31 12:50:59;;;;;;;4.82;2.60;;;;;;;;;;4953477;28;20056;-92
2023/07/31 12:53:28;;;;;;;3.70;2.40;;;;;;;;;;4947538;29;20054;-93
2023/07/31 12:55:56;;;;;;;3.63;2.20;;;;;;;;;;4946768;29;20046;-93
2023/07/31 12:58:23;;;;;;;5.53;2.88;;;;;;;;;;4935065;29;20427;-93
2023/07/31 13:00:51;;;;;;;3.13;2.08;;;;;;;;;;4943329;29;20074;-94
2023/07/31 13:03:19;;;;;;;3.65;2.65;;;;;;;;;;4946022;29;20051;-94
2023/07/31 13:05:46;;;;;;;3.65;2.28;;;;;;;;;;4940666;29;20071;-94
2023/07/31 13:08:17;;;;;;;3.92;2.53;;;;;;;;;;4922742;29;20062;-93
2023/07/31 13:10:46;;;;;;;2.80;1.83;;;;;;;;;;4944404;29;20055;-93
2023/07/31 13:13:13;;;;;;;5.05;2.53;;;;;;;;;;4941048;29;20652;-94
2023/07/31 13:15:45;;;;;;;4.03;2.25;;;;;;;;;;4924527;29;20055;-94
2023/07/31 13:18:12;;;;;;;6.38;2.35;;;;;;;;;;4946207;29;20400;-92
2023/07/31 13:20:40;;;;;;;3.83;2.25;;;;;;;;;;4943447;29;20055;-92
2023/07/31 13:23:07;;;;;;;7.40;2.38;;;;;;;;;;4941578;29;20047;-93
2023/07/31 13:25:34;;;;;;;7.60;3.20;;;;;;;;;;4949668;29;20056;-92
2023/07/31 13:28:03;;;;;;;6.03;2.28;;;;;;;;;;4944093;29;20039;-93
2023/07/31 13:30:31;;;;;;;11.82;3.85;;;;;;;;;;4940553;29;20055;-92
2023/07/31 13:32:58;;;;;;;5.70;1.95;;;;;;;;;;4926086;29;20051;-93
2023/07/31 13:35:26;;;;;;;6.90;2.40;;;;;;;;;;4939897;29;20055;-92
2023/07/31 13:37:53;;;;;;;3.17;2.28;;;;;;;;;;4954256;28;20074;-92
2023/07/31 13:40:23;;;;;;;4.05;2.08;;;;;;;;;;4936501;29;20063;-92
2023/07/31 13:42:50;;;;;;;5.45;2.38;;;;;;;;;;4930802;29;20044;-93
2023/07/31 13:45:19;;;;;;;4.15;3.75;;;;;;;;;;4938114;29;20537;-93
2023/07/31 13:47:47;;;;;;;4.22;2.35;;;;;;;;;;4939093;29;20047;-93
2023/07/31 13:50:19;;;;;;;4.00;2.15;;;;;;;;;;4937382;29;20048;-92
2023/07/31 13:52:48;;;;;;;6.83;2.50;;;;;;;;;;4935596;29;20790;-92
2023/07/31 13:55:18;;;;;;;4.38;2.20;;;;;;;;;;4929651;29;20059;-93
2023/07/31 13:57:48;;;;;;;2.65;1.75;;;;;;;;;;4938339;29;20062;-93
2023/07/31 14:00:16;;;;;;;3.13;2.30;;;;;;;;;;4942980;29;20063;-92
2023/07/31 14:02:45;;;;;;;4.45;2.25;;;;;;;;;;4942388;29;20047;-92
2023/07/31 14:05:12;;;;;;;3.50;1.95;;;;;;;;;;4944862;29;20442;-94
2023/07/31 14:07:40;;;;;;;4.43;2.20;;;;;;;;;;4942882;29;20040;-93
2023/07/31 14:10:08;;;;;;;5.30;2.45;;;;;;;;;;4950003;29;20423;-94
2023/07/31 14:12:35;;;;;;;2.90;1.45;;;;;;;;;;4949663;29;20067;-92
2023/07/31 14:15:08;;;;;;;6.45;2.78;;;;;;;;;;4947250;29;20478;-94
2023/07/31 14:17:36;;;;;;;3.75;2.13;;;;;;;;;;4949201;29;20071;-93
2023/07/31 14:20:06;;;;;;;3.10;2.15;;;;;;;;;;4934577;29;20062;-93
2023/07/31 14:22:38;;;;;;;3.75;2.33;;;;;;;;;;4962176;28;20052;-93
2023/07/31 14:25:10;;;;;;;8.55;3.08;;;;;;;;;;4959819;28;20055;-93
2023/07/31 14:27:40;;;;;;;5.65;2.25;;;;;;;;;;4943113;29;20059;-93
2023/07/31 14:30:10;;;;;;;4.38;2.20;;;;;;;;;;4949044;29;20098;-94
2023/07/31 14:32:39;;;;;;;2.53;1.98;;;;;;;;;;4945305;29;20035;-92
2023/07/31 14:35:09;;;;;;;6.03;2.95;;;;;;;;;;4936826;29;20627;-93
2023/07/31 14:37:41;;;;;;;10.82;2.25;;;;;;;;;;4949800;29;20043;-90
2023/07/31 14:40:09;;;;;;;7.18;2.25;;;;;;;;;;4941998;29;20051;-93
2023/07/31 14:42:37;;;;;;;3.97;2.00;;;;;;;;;;4951231;29;20055;-93
2023/07/31 14:45:04;;;;;;;5.63;2.42;;;;;;;;;;4943619;29;20058;-94
2023/07/31 14:47:32;;;;;;;3.28;2.53;;;;;;;;;;4949777;29;20051;-94
2023/07/31 14:50:00;;;;;;;8.60;2.03;;;;;;;;;;4933459;29;20039;-92
2023/07/31 14:52:29;;;;;;;6.32;2.67;;;;;;;;;;4955047;29;20050;-92
2023/07/31 14:54:56;;;;;;;2.00;1.73;;;;;;;;;;4949029;29;20055;-94
2023/07/31 14:57:28;;;;;;;5.18;2.42;;;;;;;;;;4944515;29;20052;-94
2023/07/31 14:59:56;;;;;;;3.25;1.50;;;;;;;;;;4946270;29;20062;-93
2023/07/31 15:02:27;;;;;;;5.15;2.45;;;;;;;;;;4944229;29;20070;-91
2023/07/31 15:04:54;;;;;;;4.63;2.38;;;;;;;;;;4962411;28;20055;-93
2023/07/31 15:07:24;;;;;;;3.95;2.58;;;;;;;;;;4948589;29;20078;-94
2023/07/31 15:09:53;;;;;;;3.33;2.30;;;;;;;;;;4945182;29;20062;-92